Time;durP1;ratioP1;P1;durP2;ratioP2;P2;SDS_P1;SDS_P2;PMS_P1;PMS_P2;Temp;Humidity;BMP_temperature;BMP_pressure;BME280_temperature;BME280_humidity;BME280_pressure;Samples;Min_cycle;Max_cycle;Signal;HPM_P1;HPM_P2
2021/04/03 00:01:20;;;;;;;16.65;6.60;;;;;;;9.00;59.88;101086.34;5094858;28;20055;-59
2021/04/03 00:03:47;;;;;;;16.10;5.35;;;;;;;8.91;59.43;101092.50;5095312;28;20059;-58
2021/04/03 00:06:14;;;;;;;13.27;4.57;;;;;;;8.84;58.42;101086.44;5095104;28;20052;-59
2021/04/03 00:08:42;;;;;;;8.00;3.60;;;;;;;8.74;55.70;101095.66;5094947;28;20059;-59
2021/04/03 00:11:09;;;;;;;12.43;3.35;;;;;;;8.63;55.43;101084.88;5075027;28;20045;-59
2021/04/03 00:13:39;;;;;;;6.75;2.85;;;;;;;8.52;56.22;101090.53;5074704;28;20063;-58
2021/04/03 00:16:06;;;;;;;;;;;;;;;8.39;55.35;101073.63;5075550;28;20052;-59
2021/04/03 00:18:33;;;;;;;13.00;3.03;;;;;;;8.27;56.82;101085.03;5074582;28;19920;-59
2021/04/03 00:21:01;;;;;;;8.88;2.75;;;;;;;8.24;55.58;101088.41;5074546;28;20049;-59
2021/04/03 00:23:28;;;;;;;10.02;3.17;;;;;;;8.22;53.88;101090.63;5076945;28;20052;-57
2021/04/03 00:25:56;;;;;;;10.25;3.55;;;;;;;8.14;54.20;101098.41;5092446;28;20044;-59
2021/04/03 00:28:23;;;;;;;9.20;2.80;;;;;;;8.10;54.00;101096.47;5094254;28;20060;-58
2021/04/03 00:30:50;;;;;;;10.45;2.78;;;;;;;8.09;54.42;101098.44;5094712;28;20048;-59
2021/04/03 00:33:17;;;;;;;9.80;3.08;;;;;;;8.05;54.89;101086.22;5094592;28;20473;-59
2021/04/03 00:35:45;;;;;;;13.75;3.83;;;;;;;8.03;55.90;101085.69;5093544;28;20055;-59
2021/04/03 00:38:13;;;;;;;11.02;3.38;;;;;;;8.06;55.93;101078.72;5087683;28;20071;-58
2021/04/03 00:40:45;;;;;;;12.40;4.05;;;;;;;8.04;56.29;101076.25;5093619;28;20052;-58
2021/04/03 00:43:16;;;;;;;12.50;3.40;;;;;;;8.01;57.22;101085.13;5094639;28;20473;-59
2021/04/03 00:45:44;;;;;;;11.98;2.70;;;;;;;8.02;57.55;101085.94;5094183;28;20063;-59
2021/04/03 00:48:11;;;;;;;16.55;3.58;;;;;;;8.01;56.75;101079.59;5094400;28;20056;-59
2021/04/03 00:50:41;;;;;;;12.00;3.50;;;;;;;8.01;57.90;101085.13;5094239;28;20063;-59
2021/04/03 00:53:12;;;;;;;13.23;4.13;;;;;;;7.97;57.51;101081.25;5093944;28;20059;-59
2021/04/03 00:55:39;;;;;;;10.15;3.00;;;;;;;7.99;58.29;101084.59;5093559;28;20439;-57
2021/04/03 00:58:07;;;;;;;13.18;4.20;;;;;;;7.98;58.73;101085.72;5076088;28;20059;-59
2021/04/03 01:00:35;;;;;;;12.60;3.83;;;;;;;7.96;58.13;101079.63;5073931;28;20059;-58
2021/04/03 01:03:02;;;;;;;14.23;3.63;;;;;;;7.97;58.17;101084.03;5072898;28;20052;-58
2021/04/03 01:05:29;;;;;;;10.23;3.65;;;;;;;7.98;58.29;101079.31;5073177;28;20060;-59
2021/04/03 01:07:56;;;;;;;14.90;4.28;;;;;;;8.00;57.88;101089.03;5073436;28;20052;-58
2021/04/03 01:10:27;;;;;;;14.45;4.68;;;;;;;7.96;58.43;101076.84;5073279;28;20055;-59
2021/04/03 01:13:09;;;;;;;15.30;4.07;;;;;;;7.97;59.25;101083.22;5064254;28;20060;-58
2021/04/03 01:15:43;;;;;;;14.63;4.38;;;;;;;7.96;59.03;101085.16;5072656;28;20048;-59
2021/04/03 01:18:18;;;;;;;10.07;3.28;;;;;;;7.97;59.32;101084.03;5072643;28;20048;-59
2021/04/03 01:21:00;;;;;;;8.85;3.35;;;;;;;7.97;59.12;101077.66;5073369;28;20520;-59
2021/04/03 01:24:08;;;;;;;10.70;3.92;;;;;;;7.98;59.83;101076.53;5072909;28;20056;-59
2021/04/03 01:27:03;;;;;;;12.73;3.03;;;;;;;8.02;59.67;101083.19;5032437;28;20056;-59
2021/04/03 01:30:00;;;;;;;10.07;3.58;;;;;;;8.03;58.73;101084.84;5066198;28;20053;-59
2021/04/03 01:32:33;;;;;;;10.45;3.28;;;;;;;8.01;58.25;101098.19;5073435;28;20504;-59
2021/04/03 01:35:04;;;;;;;8.95;2.40;;;;;;;7.94;56.46;101090.16;5064829;28;20052;-59
2021/04/03 01:37:34;;;;;;;10.48;2.95;;;;;;;7.83;57.16;101094.06;5072559;28;20404;-59
2021/04/03 01:40:02;;;;;;;6.28;2.42;;;;;;;7.72;58.18;101094.06;5072679;28;20060;-59
2021/04/03 01:42:34;;;;;;;8.38;2.70;;;;;;;7.63;58.74;101087.44;5072696;28;20512;-59
2021/04/03 01:45:07;;;;;;;9.18;3.47;;;;;;;7.60;59.62;101090.78;5073340;28;20405;-59
2021/04/03 01:47:36;;;;;;;7.97;2.78;;;;;;;7.59;59.14;101089.09;5072815;28;20143;-58
2021/04/03 01:50:06;;;;;;;11.52;3.33;;;;;;;7.57;59.35;101090.50;5073155;28;20067;-55
2021/04/03 01:52:34;;;;;;;10.52;3.35;;;;;;;7.56;59.61;101089.69;5073065;28;20056;-56
2021/04/03 01:55:07;;;;;;;8.25;3.00;;;;;;;7.58;60.08;101081.06;5072035;28;20053;-59
2021/04/03 01:57:35;;;;;;;9.65;3.15;;;;;;;7.58;59.92;101086.59;5085014;28;20408;-59
2021/04/03 02:00:11;;;;;;;9.80;3.25;;;;;;;7.65;60.01;101095.47;5084207;28;20062;-59
2021/04/03 02:02:39;;;;;;;9.93;2.90;;;;;;;7.68;59.73;101090.19;5092831;28;20048;-58
2021/04/03 02:05:10;;;;;;;12.38;3.92;;;;;;;7.71;59.05;101086.06;5092471;28;20055;-59
2021/04/03 02:07:43;;;;;;;9.23;3.92;;;;;;;7.75;59.27;101081.59;5092530;28;20500;-58
2021/04/03 02:10:12;;;;;;;8.63;2.90;;;;;;;7.79;59.53;101090.19;5091221;28;20507;-57
2021/04/03 02:12:42;;;;;;;9.52;2.90;;;;;;;7.81;58.80;101091.59;5092770;28;20052;-57
2021/04/03 02:15:11;;;;;;;14.77;3.28;;;;;;;7.77;58.80;101093.25;5092748;28;20085;-59
2021/04/03 02:17:42;;;;;;;14.63;3.38;;;;;;;7.78;58.46;101088.53;5093477;28;20130;-59
2021/04/03 02:20:11;;;;;;;11.30;3.05;;;;;;;7.80;58.78;101095.44;5092308;28;20048;-59
2021/04/03 02:22:38;;;;;;;13.65;3.60;;;;;;;7.83;58.05;101094.91;5092370;28;20052;-58
2021/04/03 02:25:08;;;;;;;12.20;3.53;;;;;;;7.84;58.02;101091.00;5092267;28;20079;-56
2021/04/03 02:27:35;;;;;;;14.95;3.33;;;;;;;7.81;58.08;101104.59;5092247;28;20408;-59
2021/04/03 02:30:12;;;;;;;13.60;3.10;;;;;;;7.82;58.60;101104.31;5084483;28;20051;-59
2021/04/03 02:32:45;;;;;;;13.35;3.15;;;;;;;7.82;57.74;101092.41;5092034;28;20067;-57
2021/04/03 02:35:13;;;;;;;10.68;3.20;;;;;;;7.79;58.35;101093.81;5092754;28;20048;-59
2021/04/03 02:37:42;;;;;;;14.77;3.95;;;;;;;7.79;58.29;101099.34;5092451;28;20500;-59
2021/04/03 02:40:12;;;;;;;12.27;3.28;;;;;;;7.81;58.16;101099.03;5091552;28;20076;-58
2021/04/03 02:42:41;;;;;;;;;;;;;;;7.78;58.84;101097.66;5093182;28;20048;-58
2021/04/03 02:45:12;;;;;;;12.18;3.90;;;;;;;7.76;58.54;101101.84;5086125;28;19927;-60
2021/04/03 02:47:45;;;;;;;15.65;3.33;;;;;;;7.76;58.49;101108.22;5092460;28;20063;-58
2021/04/03 02:50:17;;;;;;;16.88;3.72;;;;;;;7.78;58.97;101107.94;5091906;28;20055;-58
2021/04/03 02:52:47;;;;;;;12.45;3.95;;;;;;;7.78;58.71;101107.94;5092178;28;20417;-59
2021/04/03 02:55:17;;;;;;;;;;;;;;;7.76;59.10;101099.91;5093101;28;20059;-59
2021/04/03 02:57:45;;;;;;;10.95;3.53;;;;;;;7.76;58.03;101107.38;5091482;28;20375;-59
2021/04/03 03:00:14;;;;;;;21.37;4.30;;;;;;;7.77;58.32;101101.56;5092088;28;20048;-59
2021/04/03 03:02:45;;;;;;;9.20;4.22;;;;;;;7.76;58.73;101090.75;5092835;28;20048;-58
2021/04/03 03:05:19;;;;;;;10.65;3.88;;;;;;;7.78;58.30;101096.84;5092616;28;20052;-59
2021/04/03 03:07:51;;;;;;;11.68;3.88;;;;;;;7.79;57.80;101093.81;5092286;28;20052;-59
2021/04/03 03:10:19;;;;;;;11.82;3.45;;;;;;;7.81;57.59;101102.66;5093145;28;20476;-58
2021/04/03 03:12:49;;;;;;;10.27;3.13;;;;;;;7.84;56.62;101104.03;5094045;28;20493;-59
2021/04/03 03:15:18;;;;;;;11.93;3.67;;;;;;;7.84;57.02;101112.38;5095724;28;20065;-58
2021/04/03 03:17:47;;;;;;;14.55;3.38;;;;;;;7.87;56.00;101123.75;5095828;28;20507;-58
2021/04/03 03:20:15;;;;;;;9.95;3.17;;;;;;;7.89;56.02;101129.00;5095381;28;20067;-58
2021/04/03 03:22:43;;;;;;;13.02;3.10;;;;;;;7.84;55.59;101129.00;5095674;28;20404;-58
2021/04/03 03:25:11;;;;;;;14.55;4.28;;;;;;;7.84;55.49;101115.97;5092210;28;20386;-57
2021/04/03 03:27:41;;;;;;;11.40;3.33;;;;;;;7.83;55.90;101119.00;5096313;28;20052;-55
2021/04/03 03:30:09;;;;;;;9.07;2.85;;;;;;;7.82;55.48;101120.13;5095430;28;20062;-58
2021/04/03 03:32:37;;;;;;;12.50;3.33;;;;;;;7.82;55.45;101131.22;5095421;28;20500;-59
2021/04/03 03:35:06;;;;;;;14.02;3.33;;;;;;;7.83;55.57;101130.09;5095340;28;20056;-58
2021/04/03 03:37:33;;;;;;;12.93;3.35;;;;;;;7.80;56.06;101125.13;5095700;28;20048;-59
2021/04/03 03:40:01;;;;;;;16.40;4.05;;;;;;;7.81;55.44;101133.19;5095211;28;20377;-58
2021/04/03 03:42:28;;;;;;;13.48;3.53;;;;;;;7.84;55.42;101121.50;5095564;28;20048;-58
2021/04/03 03:44:57;;;;;;;16.92;3.85;;;;;;;7.85;55.82;101130.66;5095496;28;20064;-58
2021/04/03 03:47:24;;;;;;;14.90;3.10;;;;;;;7.83;54.77;101139.28;5095195;28;20060;-58
2021/04/03 03:49:50;;;;;;;12.85;3.15;;;;;;;7.82;54.33;101136.78;5095170;28;20059;-58
2021/04/03 03:52:20;;;;;;;11.50;3.08;;;;;;;7.80;54.38;101128.72;5095387;28;20056;-58
2021/04/03 03:54:47;;;;;;;13.00;3.00;;;;;;;7.72;55.42;101124.56;5094654;28;20056;-58
2021/04/03 03:57:14;;;;;;;12.38;3.38;;;;;;;7.73;54.89;101125.44;5095002;28;20059;-58
2021/04/03 03:59:41;;;;;;;17.52;3.28;;;;;;;7.70;55.48;101129.56;5095039;28;20048;-58
2021/04/03 04:02:08;;;;;;;10.90;3.10;;;;;;;7.65;55.03;101135.13;5095219;28;20048;-58
2021/04/03 04:04:35;;;;;;;13.15;3.50;;;;;;;7.62;55.59;101127.38;5094601;28;20059;-59
2021/04/03 04:07:02;;;;;;;11.23;2.80;;;;;;;7.63;55.99;101119.88;5094965;28;20056;-57
2021/04/03 04:09:32;;;;;;;14.98;3.38;;;;;;;7.62;56.11;101124.59;5094597;28;20059;-58
2021/04/03 04:12:04;;;;;;;17.13;3.42;;;;;;;7.63;56.49;101133.75;5095117;28;20052;-59
2021/04/03 04:14:32;;;;;;;15.65;3.20;;;;;;;7.60;56.58;101140.69;5094696;28;20079;-59
2021/04/03 04:16:59;;;;;;;13.73;3.35;;;;;;;7.60;57.09;101137.91;5095179;28;20056;-57
2021/04/03 04:19:28;;;;;;;11.60;3.05;;;;;;;7.64;57.05;101136.25;5093538;28;20051;-59
2021/04/03 04:21:55;;;;;;;12.70;3.17;;;;;;;7.64;57.04;101141.78;5094023;28;20449;-58
2021/04/03 04:24:23;;;;;;;15.05;3.10;;;;;;;7.64;56.93;101150.13;5091013;28;20056;-58
2021/04/03 04:26:52;;;;;;;12.88;2.67;;;;;;;7.66;56.34;101152.59;5094597;28;20052;-59
2021/04/03 04:29:19;;;;;;;14.73;3.08;;;;;;;7.67;56.53;101152.31;5094632;28;20075;-59
2021/04/03 04:31:46;;;;;;;15.73;3.20;;;;;;;7.67;57.33;101157.03;5094258;28;20052;-59
2021/04/03 04:34:12;;;;;;;14.32;3.17;;;;;;;7.70;56.65;101162.84;5094159;28;20055;-59
2021/04/03 04:36:39;;;;;;;13.70;3.50;;;;;;;7.67;57.20;101157.88;5094802;28;20441;-59
2021/04/03 04:39:06;;;;;;;13.25;3.53;;;;;;;7.64;57.30;101165.91;5088249;28;20056;-59
2021/04/03 04:41:33;;;;;;;16.20;3.83;;;;;;;7.60;57.00;101173.97;5094296;28;20052;-59
2021/04/03 04:44:01;;;;;;;17.00;3.17;;;;;;;7.59;57.57;101183.38;5094781;28;20052;-59
2021/04/03 04:46:28;;;;;;;12.07;3.35;;;;;;;7.59;56.67;101177.81;5094022;28;20056;-59
2021/04/03 04:48:57;;;;;;;17.00;4.40;;;;;;;7.56;56.96;101178.41;5093863;28;20059;-58
2021/04/03 04:51:25;;;;;;;13.63;2.97;;;;;;;7.53;57.06;101181.69;5094474;28;20052;-59
2021/04/03 04:53:57;;;;;;;15.52;3.38;;;;;;;7.55;57.15;101186.97;5093262;28;20044;-58
2021/04/03 04:56:24;;;;;;;15.32;3.67;;;;;;;7.56;57.24;101183.09;5093216;28;20412;-59
2021/04/03 04:58:51;;;;;;;12.70;3.45;;;;;;;7.55;57.44;101187.81;5093752;28;20063;-59
2021/04/03 05:01:19;;;;;;;13.23;3.83;;;;;;;7.52;57.65;101193.91;5093735;28;20503;-59
2021/04/03 05:03:46;;;;;;;11.82;2.63;;;;;;;7.55;57.40;101190.56;5093683;28;20503;-59
2021/04/03 05:06:12;;;;;;;14.13;3.60;;;;;;;7.57;57.69;101195.84;5094145;28;20075;-59
2021/04/03 05:08:40;;;;;;;21.30;4.32;;;;;;;7.58;58.08;101194.72;5093614;28;20052;-59
2021/04/03 05:11:06;;;;;;;18.02;4.00;;;;;;;7.62;58.24;101205.00;5092476;28;20055;-57
2021/04/03 05:13:33;;;;;;;16.52;4.57;;;;;;;7.66;57.31;101200.53;5093393;28;20044;-59
2021/04/03 05:16:00;;;;;;;17.85;3.97;;;;;;;7.70;57.30;101207.19;5093565;28;20380;-56
2021/04/03 05:18:28;;;;;;;14.02;3.10;;;;;;;7.72;58.16;101207.75;5093293;28;20485;-58
2021/04/03 05:20:55;;;;;;;20.33;3.92;;;;;;;7.76;57.61;101210.00;5093462;28;20056;-59
2021/04/03 05:23:22;;;;;;;16.20;3.00;;;;;;;7.78;57.41;101225.25;5092776;28;20052;-58
2021/04/03 05:25:49;;;;;;;14.75;3.45;;;;;;;7.81;56.88;101218.31;5093559;28;20055;-59
2021/04/03 05:28:16;;;;;;;13.65;3.53;;;;;;;7.84;57.04;101220.53;5093561;28;20060;-57
2021/04/03 05:30:44;;;;;;;13.75;3.60;;;;;;;7.88;56.16;101224.41;5093701;28;20047;-57
2021/04/03 05:33:11;;;;;;;15.20;3.75;;;;;;;7.84;56.96;101223.31;5092478;28;20059;-59
2021/04/03 05:35:39;;;;;;;15.68;4.93;;;;;;;7.78;56.99;101221.66;5092734;28;20063;-59
2021/04/03 05:38:06;;;;;;;13.48;3.30;;;;;;;7.77;56.91;101225.50;5091596;28;20484;-59
2021/04/03 05:40:33;;;;;;;13.85;3.50;;;;;;;7.76;56.73;101234.94;5089436;28;20485;-59
2021/04/03 05:43:03;;;;;;;10.27;3.10;;;;;;;7.72;56.86;101227.16;5093562;28;20044;-59
2021/04/03 05:45:38;;;;;;;19.33;3.30;;;;;;;7.69;57.44;101233.28;5093716;28;20044;-56
2021/04/03 05:48:07;;;;;;;16.52;4.13;;;;;;;7.73;57.61;101239.94;5093427;28;20059;-59
2021/04/03 05:50:38;;;;;;;19.70;4.55;;;;;;;7.79;56.68;101243.56;5093395;28;20106;-58
2021/04/03 05:53:06;;;;;;;14.93;3.97;;;;;;;7.79;57.03;101240.78;5093558;28;20381;-59
2021/04/03 05:55:34;;;;;;;15.25;3.42;;;;;;;7.82;57.05;101242.16;5093217;28;20361;-59
2021/04/03 05:58:01;;;;;;;15.93;4.32;;;;;;;7.88;57.00;101246.59;5092251;28;20048;-58
2021/04/03 06:00:30;;;;;;;15.65;3.95;;;;;;;7.92;56.13;101254.09;5089210;28;20464;-58
2021/04/03 06:02:57;;;;;;;16.83;3.30;;;;;;;7.94;57.09;101251.03;5091876;28;20060;-59
2021/04/03 06:05:24;;;;;;;11.50;4.53;;;;;;;7.97;56.49;101264.34;5092184;28;20056;-59
2021/04/03 06:07:51;;;;;;;18.58;3.78;;;;;;;7.99;56.04;101264.06;5086170;28;20056;-60
2021/04/03 06:10:22;;;;;;;11.52;3.50;;;;;;;8.07;56.64;101278.22;5107745;28;20063;-60
2021/04/03 06:12:49;;;;;;;14.38;3.45;;;;;;;8.27;56.56;101266.28;5102598;28;20055;-59
2021/04/03 06:15:35;;;;;;;17.10;4.88;;;;;;;8.54;56.38;101274.28;5102262;28;20051;-59
2021/04/03 06:18:09;;;;;;;12.43;3.40;;;;;;;8.78;55.75;101268.16;5084168;28;20044;-59
2021/04/03 06:20:37;;;;;;;14.75;3.53;;;;;;;8.92;54.17;101273.91;5093149;28;20044;-60
2021/04/03 06:23:05;;;;;;;11.43;3.35;;;;;;;9.08;53.94;101280.25;5092158;28;20373;-60
2021/04/03 06:25:53;;;;;;;11.82;2.90;;;;;;;9.14;53.84;101287.47;5080607;28;20052;-60
2021/04/03 06:28:26;;;;;;;10.25;3.35;;;;;;;9.18;54.20;101287.72;5092417;28;20047;-60
2021/04/03 06:30:57;;;;;;;14.73;3.47;;;;;;;9.25;54.11;101285.47;5092322;28;20055;-60
2021/04/03 06:33:24;;;;;;;15.40;3.85;;;;;;;9.25;53.01;101291.84;5092397;28;20044;-60
2021/04/03 06:36:06;;;;;;;14.05;3.17;;;;;;;9.26;52.81;101298.22;5092486;28;20052;-60
2021/04/03 06:38:35;;;;;;;20.30;3.90;;;;;;;9.24;52.85;101290.19;5090357;28;20078;-60
2021/04/03 06:41:18;;;;;;;15.48;3.70;;;;;;;9.15;52.91;101289.09;5069246;28;20998;-59
2021/04/03 06:44:01;;;;;;;16.65;4.50;;;;;;;9.17;53.45;101289.66;5070304;28;20064;-60
2021/04/03 06:46:28;;;;;;;16.40;3.72;;;;;;;9.18;53.68;101296.06;5075519;28;20397;-60
2021/04/03 06:48:57;;;;;;;18.13;4.38;;;;;;;9.19;53.51;101304.09;5076922;28;20063;-60
2021/04/03 06:51:25;;;;;;;22.30;4.65;;;;;;;9.29;52.87;101317.97;5092918;28;20393;-60
2021/04/03 06:53:54;;;;;;;16.30;4.07;;;;;;;9.37;52.63;101322.09;5095702;28;20048;-60
2021/04/03 06:56:25;;;;;;;20.48;4.45;;;;;;;9.50;53.23;101320.63;5094950;28;20496;-58
2021/04/03 06:58:58;;;;;;;18.92;5.22;;;;;;;9.61;51.66;101322.25;5096076;28;20504;-60
2021/04/03 07:01:27;;;;;;;16.85;3.60;;;;;;;9.62;51.64;101318.34;5094813;28;21105;-60
2021/04/03 07:04:00;;;;;;;15.03;4.57;;;;;;;9.60;51.39;101326.16;5088246;28;20503;-60
2021/04/03 07:06:27;;;;;;;16.38;4.10;;;;;;;9.64;51.57;101320.81;5095875;28;20410;-60
2021/04/03 07:08:56;;;;;;;16.90;4.45;;;;;;;9.69;51.91;101318.84;5090999;28;20044;-59
2021/04/03 07:11:28;;;;;;;18.60;4.93;;;;;;;9.69;52.03;101318.84;5075007;28;20048;-57
2021/04/03 07:13:57;;;;;;;15.48;4.28;;;;;;;9.69;51.41;101329.16;5090451;28;20348;-59
2021/04/03 07:16:24;;;;;;;17.23;4.72;;;;;;;9.67;51.11;101336.97;5082014;28;20044;-58
2021/04/03 07:18:53;;;;;;;19.88;5.82;;;;;;;9.65;50.95;101334.44;5083705;28;20056;-58
2021/04/03 07:21:22;;;;;;;19.88;6.22;;;;;;;9.75;51.76;101339.97;5085231;28;20056;-56
2021/04/03 07:23:51;;;;;;;17.75;4.97;;;;;;;9.88;51.25;101340.44;5090901;28;20055;-59
2021/04/03 07:26:18;;;;;;;19.70;5.88;;;;;;;9.89;51.34;101342.94;5089333;28;20044;-58
2021/04/03 07:28:46;;;;;;;19.13;4.90;;;;;;;9.98;50.67;101343.16;5074946;28;20488;-58
2021/04/03 07:31:37;;;;;;;18.35;4.72;;;;;;;10.07;49.98;101346.97;5075963;28;20063;-56
2021/04/03 07:34:04;;;;;;;18.95;5.35;;;;;;;10.25;49.22;101353.00;5092870;28;20059;-57
2021/04/03 07:36:33;;;;;;;18.60;5.70;;;;;;;10.31;48.73;101344.34;5082301;28;20477;-59
2021/04/03 07:39:02;;;;;;;20.20;4.72;;;;;;;10.34;47.46;101351.25;5087952;28;20044;-60
2021/04/03 07:41:36;;;;;;;16.80;5.13;;;;;;;10.45;46.80;101352.00;5074014;28;20111;-58
2021/04/03 07:44:13;;;;;;;16.98;4.70;;;;;;;10.64;45.99;101366.03;5075401;28;20062;-58
2021/04/03 07:46:42;;;;;;;17.75;3.90;;;;;;;10.77;45.34;101357.84;5087234;28;20480;-56
2021/04/03 07:49:11;;;;;;;17.20;5.38;;;;;;;10.90;44.92;101355.50;5095435;28;20078;-58
2021/04/03 07:51:46;;;;;;;18.52;4.70;;;;;;;11.01;44.83;101373.75;5086857;28;20052;-59
2021/04/03 07:54:30;;;;;;;16.65;5.15;;;;;;;11.13;44.41;101363.03;5094587;28;20079;-60
2021/04/03 07:57:02;;;;;;;19.45;4.47;;;;;;;11.41;44.35;101365.22;5092095;28;20064;-60
2021/04/03 07:59:54;;;;;;;13.63;4.35;;;;;;;11.96;44.00;101371.19;5094972;28;20052;-60
2021/04/03 08:02:26;;;;;;;15.48;4.70;;;;;;;12.27;42.62;101370.72;5095426;28;20067;-59
2021/04/03 08:04:54;;;;;;;16.27;5.57;;;;;;;12.47;42.15;101361.16;5074926;28;20063;-60
2021/04/03 08:07:22;;;;;;;15.13;4.60;;;;;;;12.84;40.75;101362.19;5074656;28;20413;-60
2021/04/03 08:09:50;;;;;;;17.05;5.82;;;;;;;13.04;40.76;101373.00;5093739;28;20048;-60
2021/04/03 08:12:21;;;;;;;19.73;5.63;;;;;;;13.22;39.82;101376.00;5089463;28;20473;-60
2021/04/03 08:14:51;;;;;;;17.38;6.05;;;;;;;13.28;39.72;101383.16;5094396;28;20051;-60
2021/04/03 08:17:20;;;;;;;19.45;6.35;;;;;;;13.32;40.09;101385.06;5094602;28;20492;-60
2021/04/03 08:19:47;;;;;;;18.30;6.03;;;;;;;13.42;40.02;101386.84;5094540;28;20048;-60
2021/04/03 08:22:15;;;;;;;14.32;5.35;;;;;;;13.49;39.81;101383.63;5085894;28;20067;-60
2021/04/03 08:24:56;;;;;;;13.15;5.60;;;;;;;13.53;39.78;101393.03;5093903;28;20048;-59
2021/04/03 08:27:34;;;;;;;14.40;6.28;;;;;;;13.60;39.07;101401.84;5091093;28;20055;-59
2021/04/03 08:30:20;;;;;;;17.63;5.72;;;;;;;14.11;38.20;101399.88;5095177;28;20052;-60
2021/04/03 08:33:03;;;;;;;19.42;8.10;;;;;;;14.87;36.66;101402.81;5094228;28;20052;-59
2021/04/03 08:35:30;;;;;;;12.70;6.25;;;;;;;15.64;34.56;101400.66;5092564;28;20047;-60
2021/04/03 08:38:11;;;;;;;14.50;6.53;;;;;;;17.60;32.07;101401.50;5094016;28;20062;-60
2021/04/03 08:40:39;;;;;;;14.15;5.72;;;;;;;20.27;27.17;101402.16;5111153;28;20048;-60
2021/04/03 08:43:06;;;;;;;12.57;5.75;;;;;;;20.38;26.49;101402.50;5095265;28;20052;-60
2021/04/03 08:45:36;;;;;;;13.30;7.60;;;;;;;21.74;24.53;101394.84;5090012;28;20055;-60
2021/04/03 08:48:03;;;;;;;16.55;7.30;;;;;;;23.73;21.39;101392.75;5094008;28;20059;-59
2021/04/03 08:50:31;;;;;;;12.23;7.07;;;;;;;24.25;21.10;101393.09;5088099;28;20057;-60
2021/04/03 08:53:02;;;;;;;13.13;5.90;;;;;;;25.09;20.48;101388.84;5093003;28;20059;-60
2021/04/03 08:55:29;;;;;;;13.73;5.63;;;;;;;26.31;19.12;101384.09;5093498;28;20424;-61
2021/04/03 08:57:57;;;;;;;15.43;6.07;;;;;;;24.99;20.51;101395.25;5093313;28;20060;-61
2021/04/03 09:00:24;;;;;;;16.95;7.15;;;;;;;24.96;20.31;101400.91;5093373;28;20055;-59
2021/04/03 09:02:53;;;;;;;17.20;6.65;;;;;;;26.35;18.51;101388.97;5093699;28;20152;-59
2021/04/03 09:05:23;;;;;;;13.93;5.95;;;;;;;25.02;19.49;101399.34;5090327;28;20047;-59
2021/04/03 09:07:54;;;;;;;12.27;6.07;;;;;;;24.44;19.90;101398.69;5091961;28;20075;-59
2021/04/03 09:10:23;;;;;;;10.50;5.82;;;;;;;24.39;19.73;101393.31;5093600;28;20047;-59
2021/04/03 09:12:53;;;;;;;13.52;5.72;;;;;;;23.53;21.15;101399.72;5073055;28;20056;-59
2021/04/03 09:15:29;;;;;;;17.48;7.90;;;;;;;22.80;21.85;101408.94;5072827;28;20056;-58
2021/04/03 09:17:58;;;;;;;13.20;5.80;;;;;;;22.04;23.42;101408.50;5091415;28;20048;-57
2021/04/03 09:20:31;;;;;;;15.65;6.57;;;;;;;21.22;23.91;101415.78;5092920;28;20051;-59
2021/04/03 09:23:05;;;;;;;17.35;7.30;;;;;;;20.48;24.75;101416.94;5085151;28;20516;-56
2021/04/03 09:25:33;;;;;;;16.50;7.18;;;;;;;19.74;26.25;101409.78;5087320;28;20051;-59
2021/04/03 09:28:04;;;;;;;15.23;5.32;;;;;;;19.47;26.67;101412.13;5092960;28;20071;-59
2021/04/03 09:30:36;;;;;;;17.65;5.90;;;;;;;19.16;26.97;101413.50;5093181;28;20048;-59
2021/04/03 09:33:19;;;;;;;17.73;7.22;;;;;;;18.83;28.03;101414.34;5092824;28;20052;-60
2021/04/03 09:35:47;;;;;;;15.52;8.18;;;;;;;18.61;28.51;101409.88;5093002;28;20074;-59
2021/04/03 09:38:14;;;;;;;17.52;7.25;;;;;;;18.39;29.39;101411.06;5092610;28;20481;-60
2021/04/03 09:40:43;;;;;;;17.92;8.15;;;;;;;18.31;29.25;101414.81;5110756;28;20055;-60
2021/04/03 09:43:12;;;;;;;14.57;7.32;;;;;;;17.85;30.33;101411.00;5096517;28;20052;-60
2021/04/03 09:45:39;;;;;;;15.57;7.10;;;;;;;17.87;30.07;101407.81;5091709;28;20055;-60
2021/04/03 09:48:08;;;;;;;17.50;7.28;;;;;;;17.84;29.77;101418.59;5092920;28;20058;-59
2021/04/03 09:50:36;;;;;;;20.05;8.85;;;;;;;17.57;30.61;101417.06;5092251;28;20048;-60
2021/04/03 09:53:07;;;;;;;15.18;7.57;;;;;;;17.43;30.93;101419.31;5085153;28;20052;-60
2021/04/03 09:55:34;;;;;;;13.10;6.13;;;;;;;17.41;31.10;101422.44;5092277;28;20048;-60
2021/04/03 09:58:01;;;;;;;18.85;7.00;;;;;;;17.35;31.52;101414.53;5084061;28;20052;-59
2021/04/03 10:00:29;;;;;;;16.60;6.75;;;;;;;17.41;31.01;101410.38;5093438;28;20055;-58
2021/04/03 10:02:58;;;;;;;13.15;6.82;;;;;;;17.53;30.86;101410.44;5092824;28;20056;-59
2021/04/03 10:05:25;;;;;;;;;;;;;;;17.59;30.75;101405.47;5093060;28;20052;-59
2021/04/03 10:07:53;;;;;;;16.48;7.20;;;;;;;17.75;30.51;101400.91;5089472;28;19921;-59
2021/04/03 10:10:20;;;;;;;14.65;7.28;;;;;;;18.43;29.23;101397.09;5093062;28;20048;-59
2021/04/03 10:12:47;;;;;;;17.98;8.20;;;;;;;19.26;27.86;101406.56;5092656;28;20047;-61
2021/04/03 10:15:15;;;;;;;17.50;9.05;;;;;;;22.66;23.77;101389.63;5093455;28;20508;-62
2021/04/03 10:17:42;;;;;;;17.02;8.82;;;;;;;25.89;20.09;101379.78;5092637;28;20048;-60
2021/04/03 10:20:09;;;;;;;16.98;7.93;;;;;;;27.33;17.26;101381.09;5092917;28;20040;-60
2021/04/03 10:22:36;;;;;;;17.00;9.07;;;;;;;25.83;18.78;101387.03;5083970;28;20048;-60
2021/04/03 10:25:05;;;;;;;15.73;8.57;;;;;;;28.39;16.60;101380.56;5086307;28;20043;-59
2021/04/03 10:27:32;;;;;;;15.95;8.40;;;;;;;30.67;15.44;101384.75;5084490;28;20071;-61
2021/04/03 10:29:59;;;;;;;16.40;8.85;;;;;;;29.14;15.52;101394.50;5092018;28;20051;-60
2021/04/03 10:32:26;;;;;;;18.92;9.93;;;;;;;27.43;17.49;101393.78;5092758;28;20075;-61
2021/04/03 10:34:53;;;;;;;17.65;10.55;;;;;;;25.78;19.45;101404.53;5082360;28;20048;-62
2021/04/03 10:37:20;;;;;;;16.13;8.13;;;;;;;25.48;19.89;101411.22;5078956;28;20052;-62
2021/04/03 10:39:48;;;;;;;15.73;7.22;;;;;;;28.00;18.17;101401.53;5091993;28;20150;-62
2021/04/03 10:42:16;;;;;;;15.15;7.65;;;;;;;29.18;16.08;101405.16;5080863;28;20052;-63
2021/04/03 10:44:43;;;;;;;13.07;6.47;;;;;;;28.83;16.76;101404.09;5091942;28;20051;-63
2021/04/03 10:47:10;;;;;;;13.60;7.50;;;;;;;30.51;15.44;101396.91;5092602;28;20059;-62
2021/04/03 10:49:37;;;;;;;14.02;7.45;;;;;;;28.63;15.78;101403.81;5092050;28;20059;-62
2021/04/03 10:52:05;;;;;;;18.85;9.65;;;;;;;28.31;16.47;101411.28;5092697;28;20048;-62
2021/04/03 10:54:32;;;;;;;18.33;8.98;;;;;;;27.74;17.17;101399.91;5092068;28;20044;-61
2021/04/03 10:56:59;;;;;;;14.18;8.55;;;;;;;28.92;16.38;101399.53;5085438;28;20052;-62
2021/04/03 10:59:29;;;;;;;16.65;7.78;;;;;;;29.06;15.85;101403.53;5091813;28;20059;-62
2021/04/03 11:01:59;;;;;;;14.32;8.38;;;;;;;27.89;16.74;101407.28;5091745;28;20052;-61
2021/04/03 11:04:26;;;;;;;17.30;8.85;;;;;;;26.87;17.95;101410.44;5091269;28;20047;-61
2021/04/03 11:06:56;;;;;;;14.15;9.27;;;;;;;30.39;15.46;101405.28;5092312;28;20059;-61
2021/04/03 11:09:22;;;;;;;15.13;9.48;;;;;;;32.91;12.99;101393.97;5086843;28;20048;-62
2021/04/03 11:11:50;;;;;;;19.75;9.68;;;;;;;34.62;11.46;101392.78;5090590;28;20052;-62
2021/04/03 11:14:16;;;;;;;14.40;8.60;;;;;;;33.99;12.05;101399.94;5092186;28;20044;-62
2021/04/03 11:16:44;;;;;;;19.10;10.27;;;;;;;35.55;11.36;101386.88;5087553;28;20055;-62
2021/04/03 11:19:11;;;;;;;20.23;11.88;;;;;;;33.43;11.89;101401.81;5091825;28;20048;-62
2021/04/03 11:21:39;;;;;;;21.35;12.43;;;;;;;33.85;11.89;101396.19;5092135;28;20078;-62
2021/04/03 11:24:07;;;;;;;17.02;11.88;;;;;;;35.97;10.34;101387.50;5092194;28;20404;-62
2021/04/03 11:26:34;;;;;;;19.92;12.98;;;;;;;36.94;9.87;101391.75;5092416;28;20052;-62
2021/04/03 11:29:01;;;;;;;15.50;10.45;;;;;;;38.08;8.56;101394.78;5091859;28;20056;-63
2021/04/03 11:31:28;;;;;;;17.05;9.77;;;;;;;35.31;10.06;101389.38;5091184;28;20465;-63
2021/04/03 11:33:57;;;;;;;16.48;9.63;;;;;;;32.99;11.90;101401.19;5095039;28;20063;-62
2021/04/03 11:36:24;;;;;;;;;;;;;;;33.22;11.73;101396.53;5096455;28;20345;-63